createdAt,value
2023-09-25T00:01:27.028Z,13.63
2023-09-25T00:03:37.504Z,13.73
2023-09-25T00:05:45.480Z,13.66
2023-09-25T00:07:50.453Z,13.66
2023-09-25T00:10:00.352Z,13.66
2023-09-25T00:12:12.892Z,13.73
2023-09-25T00:14:20.549Z,13.71
2023-09-25T00:16:25.570Z,13.75
2023-09-25T00:18:32.924Z,13.73
2023-09-25T00:20:44.080Z,13.75
2023-09-25T00:22:52.462Z,13.78
2023-09-25T00:24:59.912Z,13.87
2023-09-25T00:27:06.244Z,13.87
2023-09-25T00:29:11.211Z,13.85
2023-09-25T00:31:15.761Z,13.83
2023-09-25T00:33:20.550Z,13.83
2023-09-25T00:35:25.882Z,13.82
2023-09-25T00:37:36.915Z,13.84
2023-09-25T00:39:39.124Z,13.81
2023-09-25T00:41:44.368Z,13.81
2023-09-25T00:43:49.155Z,13.76
2023-09-25T00:45:52.065Z,13.73
2023-09-25T00:47:59.366Z,13.70
2023-09-25T00:50:05.798Z,13.70
2023-09-25T00:52:13.990Z,13.73
2023-09-25T00:54:38.669Z,13.67
2023-09-25T00:56:46.845Z,13.64
2023-09-25T00:58:52.156Z,13.60
2023-09-25T01:01:00.245Z,13.64
2023-09-25T01:05:46.147Z,13.65
2023-09-25T01:07:56.164Z,13.67
2023-09-25T01:10:11.293Z,13.63
2023-09-25T01:12:16.355Z,13.58
2023-09-25T01:14:21.157Z,13.57
2023-09-25T01:16:28.129Z,13.56
2023-09-25T01:18:35.628Z,13.51
2023-09-25T01:20:42.057Z,13.48
2023-09-25T01:22:52.130Z,13.51
2023-09-25T01:24:58.583Z,13.39
2023-09-25T01:27:00.862Z,13.40
2023-09-25T01:29:06.198Z,13.50
2023-09-25T01:31:11.149Z,13.43
2023-09-25T01:33:18.747Z,13.38
2023-09-25T01:35:27.657Z,13.39
2023-09-25T01:37:32.771Z,13.39
2023-09-25T01:39:41.986Z,13.35
2023-09-25T01:41:49.263Z,13.33
2023-09-25T01:43:55.607Z,13.38
2023-09-25T01:46:01.648Z,13.32
2023-09-25T01:48:07.119Z,13.35
2023-09-25T01:50:13.141Z,13.26
2023-09-25T01:52:18.853Z,13.27
2023-09-25T01:54:24.217Z,13.21
2023-09-25T01:56:34.029Z,13.25
2023-09-25T01:58:38.877Z,13.27
2023-09-25T02:00:45.663Z,13.22
2023-09-25T02:02:51.805Z,13.23
2023-09-25T02:04:57.274Z,13.12
2023-09-25T02:07:03.266Z,13.11
2023-09-25T02:09:08.401Z,13.13
2023-09-25T02:11:13.293Z,13.18
2023-09-25T02:13:21.220Z,13.12
2023-09-25T02:15:26.101Z,13.09
2023-09-25T02:17:30.607Z,13.12
2023-09-25T02:19:35.369Z,13.14
2023-09-25T02:21:40.687Z,13.15
2023-09-25T02:23:45.713Z,13.13
2023-09-25T02:25:51.638Z,13.12
2023-09-25T02:27:58.745Z,13.10
2023-09-25T02:30:04.536Z,13.10
2023-09-25T02:32:09.523Z,13.09
2023-09-25T02:34:16.464Z,13.06
2023-09-25T02:36:24.377Z,13.05
2023-09-25T02:38:30.642Z,13.06
2023-09-25T02:40:36.392Z,13.04
2023-09-25T02:42:44.535Z,13.02
2023-09-25T02:44:51.894Z,13.09
2023-09-25T02:47:02.444Z,13.04
2023-09-25T02:49:10.628Z,13.02
2023-09-25T02:51:23.986Z,13.00
2023-09-25T02:53:26.981Z,13.01
2023-09-25T02:55:33.944Z,13.04
2023-09-25T02:57:38.777Z,13.09
2023-09-25T02:59:43.993Z,13.06
2023-09-25T03:01:48.715Z,13.08
2023-09-25T03:03:56.343Z,13.10
2023-09-25T03:06:01.111Z,13.08
2023-09-25T03:08:06.981Z,13.02
2023-09-25T03:10:12.706Z,13.03
2023-09-25T03:12:17.663Z,12.98
2023-09-25T03:14:22.803Z,13.00
2023-09-25T03:16:28.738Z,12.94
2023-09-25T03:18:36.845Z,12.98
2023-09-25T03:20:45.000Z,12.92
2023-09-25T03:22:51.290Z,12.92
2023-09-25T03:24:57.930Z,12.95
2023-09-25T03:27:04.147Z,12.94
2023-09-25T03:29:09.184Z,12.93
2023-09-25T03:31:14.385Z,12.90
2023-09-25T03:33:22.732Z,12.87
2023-09-25T03:35:36.280Z,12.88
2023-09-25T03:37:46.102Z,12.86
2023-09-25T03:39:52.528Z,12.85
2023-09-25T03:41:59.960Z,12.88
2023-09-25T03:44:05.848Z,12.80
2023-09-25T03:46:10.767Z,12.84
2023-09-25T03:48:16.852Z,12.84
2023-09-25T03:50:21.890Z,12.85
2023-09-25T03:52:28.812Z,12.83
2023-09-25T03:54:36.232Z,12.87
2023-09-25T03:56:41.125Z,12.83
2023-09-25T03:58:46.053Z,12.89
2023-09-25T04:00:57.256Z,12.83
2023-09-25T04:03:02.208Z,12.83
2023-09-25T04:05:07.600Z,12.85
2023-09-25T04:07:12.638Z,12.86
2023-09-25T04:09:17.895Z,12.84
2023-09-25T04:11:25.836Z,12.84
2023-09-25T04:13:31.944Z,12.80
2023-09-25T04:15:36.724Z,12.80
2023-09-25T04:17:40.755Z,12.82
2023-09-25T04:19:46.238Z,12.86
2023-09-25T04:21:53.880Z,12.81
2023-09-25T04:24:12.110Z,12.90
2023-09-25T04:26:17.635Z,12.81
2023-09-25T04:28:32.226Z,12.86
2023-09-25T04:30:40.740Z,12.81
2023-09-25T04:32:44.501Z,12.84
2023-09-25T04:34:49.614Z,12.83
2023-09-25T04:36:55.695Z,12.83
2023-09-25T04:39:02.962Z,12.87
2023-09-25T04:41:07.817Z,12.78
2023-09-25T04:43:14.090Z,12.74
2023-09-25T04:45:22.531Z,12.76
2023-09-25T04:47:26.858Z,12.76
2023-09-25T04:49:32.212Z,12.74
2023-09-25T04:51:39.340Z,12.74
2023-09-25T04:53:44.113Z,12.69
2023-09-25T04:55:48.874Z,12.74
2023-09-25T04:57:55.757Z,12.73
2023-09-25T05:00:00.702Z,12.77
2023-09-25T05:02:08.248Z,12.73
2023-09-25T05:04:14.129Z,12.66
2023-09-25T05:06:21.425Z,12.62
2023-09-25T05:08:27.959Z,12.67
2023-09-25T05:10:33.741Z,12.71
2023-09-25T05:12:38.785Z,12.65
2023-09-25T05:14:47.877Z,12.65
2023-09-25T05:16:52.843Z,12.67
2023-09-25T05:19:01.073Z,12.77
2023-09-25T05:21:06.960Z,12.72
2023-09-25T05:23:11.699Z,12.66
2023-09-25T05:25:14.666Z,12.63
2023-09-25T05:27:19.807Z,12.71
2023-09-25T05:29:27.600Z,12.61
2023-09-25T05:31:32.760Z,12.68
2023-09-25T05:33:37.912Z,12.70
2023-09-25T05:35:52.648Z,12.65
2023-09-25T05:38:00.015Z,12.66
2023-09-25T05:40:06.052Z,12.65
2023-09-25T05:42:11.666Z,12.62
2023-09-25T05:44:18.469Z,12.62
2023-09-25T05:46:35.045Z,12.65
2023-09-25T05:48:44.368Z,12.67
2023-09-25T05:50:55.657Z,12.64
2023-09-25T05:53:01.642Z,12.60
2023-09-25T05:55:12.226Z,12.64
2023-09-25T05:57:17.695Z,12.61
2023-09-25T05:59:25.834Z,12.65
2023-09-25T06:01:31.105Z,12.67
2023-09-25T06:03:37.114Z,12.64
2023-09-25T06:05:46.654Z,12.61
2023-09-25T06:07:58.377Z,12.64
2023-09-25T06:10:02.735Z,12.64
2023-09-25T06:12:10.386Z,12.65
2023-09-25T06:14:15.402Z,12.68
2023-09-25T06:16:20.535Z,12.70
2023-09-25T06:18:22.840Z,12.75
2023-09-25T06:20:33.715Z,12.73
2023-09-25T06:22:39.327Z,12.78
2023-09-25T06:25:01.596Z,12.81
2023-09-25T06:27:08.929Z,12.83
2023-09-25T06:29:14.142Z,12.86
2023-09-25T06:31:20.192Z,12.89
2023-09-25T06:33:27.480Z,12.91
2023-09-25T06:35:40.253Z,12.93
2023-09-25T06:37:45.584Z,12.98
2023-09-25T06:39:50.448Z,12.98
2023-09-25T06:42:01.994Z,13.06
2023-09-25T06:44:13.755Z,13.08
2023-09-25T06:46:26.982Z,13.09
2023-09-25T06:48:52.471Z,13.14
2023-09-25T06:50:57.861Z,13.20
2023-09-25T06:53:04.117Z,13.21
2023-09-25T06:55:12.700Z,13.34
2023-09-25T06:57:22.424Z,13.31
2023-09-25T06:59:27.440Z,13.35
2023-09-25T07:01:35.060Z,13.38
2023-09-25T07:03:49.459Z,13.43
2023-09-25T07:05:57.416Z,13.50
2023-09-25T07:08:14.014Z,13.52
2023-09-25T07:10:20.854Z,13.56
2023-09-25T07:12:28.542Z,13.58
2023-09-25T07:14:31.333Z,13.63
2023-09-25T07:16:39.690Z,13.64
2023-09-25T07:18:45.727Z,13.70
2023-09-25T07:21:01.994Z,13.76
2023-09-25T07:23:09.250Z,13.93
2023-09-25T07:25:14.551Z,13.96
2023-09-25T07:27:22.320Z,14.12
2023-09-25T07:29:42.018Z,14.13
2023-09-25T07:31:48.987Z,14.23
2023-09-25T07:34:03.024Z,14.37
2023-09-25T07:36:13.030Z,14.42
2023-09-25T07:38:18.585Z,14.45
2023-09-25T07:40:23.819Z,14.45
2023-09-25T07:42:31.088Z,14.43
2023-09-25T07:44:39.486Z,14.36
2023-09-25T07:46:49.081Z,14.53
2023-09-25T07:48:55.046Z,14.61
2023-09-25T07:51:05.219Z,14.55
2023-09-25T07:53:10.116Z,14.75
2023-09-25T07:55:16.376Z,14.88
2023-09-25T07:57:26.259Z,14.96
2023-09-25T07:59:31.042Z,15.14
2023-09-25T08:01:41.322Z,15.04
2023-09-25T08:03:47.643Z,15.06
2023-09-25T08:05:54.027Z,15.06
2023-09-25T08:07:58.883Z,15.24
2023-09-25T08:10:01.701Z,15.24
2023-09-25T08:12:08.889Z,15.25
2023-09-25T08:14:17.521Z,15.39
2023-09-25T08:16:25.192Z,15.41
2023-09-25T08:18:32.863Z,15.46
2023-09-25T08:20:38.541Z,15.56
2023-09-25T08:22:42.522Z,15.58
2023-09-25T08:24:49.799Z,15.80
2023-09-25T08:26:52.296Z,15.82
2023-09-25T08:28:59.043Z,15.94
2023-09-25T08:31:03.844Z,16.14
2023-09-25T08:33:08.829Z,16.28
2023-09-25T08:35:16.656Z,16.29
2023-09-25T08:37:24.415Z,16.45
2023-09-25T08:39:32.148Z,16.36
2023-09-25T08:41:40.305Z,16.91
2023-09-25T08:43:48.108Z,17.02
2023-09-25T08:45:54.534Z,16.76
2023-09-25T08:48:02.959Z,17.04
2023-09-25T08:50:09.466Z,17.28
2023-09-25T08:52:17.302Z,16.82
2023-09-25T08:54:22.715Z,17.07
2023-09-25T08:56:25.769Z,17.46
2023-09-25T08:58:37.793Z,17.68
2023-09-25T09:00:47.284Z,17.93
2023-09-25T09:02:56.520Z,17.93
2023-09-25T09:05:03.500Z,18.16
2023-09-25T09:07:09.746Z,18.25
2023-09-25T09:09:20.234Z,18.01
2023-09-25T09:11:25.452Z,18.19
2023-09-25T09:13:34.379Z,18.18
2023-09-25T09:15:39.404Z,18.26
2023-09-25T09:17:44.787Z,18.51
2023-09-25T09:19:59.371Z,18.56
2023-09-25T09:22:14.446Z,18.64
2023-09-25T09:24:28.945Z,18.69
2023-09-25T09:26:37.999Z,18.21
2023-09-25T09:28:45.844Z,18.24
2023-09-25T09:30:54.052Z,18.51
2023-09-25T09:33:02.074Z,18.79
2023-09-25T09:35:09.852Z,18.89
2023-09-25T09:37:16.976Z,18.65
2023-09-25T09:39:28.236Z,18.98
2023-09-25T09:41:35.960Z,19.14
2023-09-25T09:43:44.604Z,19.41
2023-09-25T09:45:52.788Z,19.71
2023-09-25T09:48:03.496Z,19.63
2023-09-25T09:50:09.642Z,19.69
2023-09-25T09:52:18.688Z,20.09
2023-09-25T09:54:30.472Z,20.47
2023-09-25T09:56:42.563Z,20.21
2023-09-25T09:58:50.526Z,20.13
2023-09-25T10:01:01.602Z,20.16
2023-09-25T10:03:09.810Z,20.61
2023-09-25T10:05:19.800Z,20.19
2023-09-25T10:07:25.698Z,20.71
2023-09-25T10:10:04.423Z,20.55
2023-09-25T10:12:10.818Z,20.70
2023-09-25T10:14:16.494Z,20.35
2023-09-25T10:16:27.210Z,20.55
2023-09-25T10:18:33.322Z,20.68
2023-09-25T10:20:42.619Z,20.92
2023-09-25T10:22:47.485Z,20.80
2023-09-25T10:25:06.701Z,20.59
2023-09-25T10:27:15.029Z,20.86
2023-09-25T10:29:20.300Z,21.02
2023-09-25T10:31:30.806Z,20.56
2023-09-25T10:33:44.494Z,20.50
2023-09-25T10:36:06.114Z,21.01
2023-09-25T10:38:23.545Z,21.22
2023-09-25T10:40:39.784Z,20.62
2023-09-25T10:42:49.558Z,20.79
2023-09-25T10:44:57.158Z,20.93
2023-09-25T10:47:05.143Z,21.44
2023-09-25T10:49:10.361Z,21.45
2023-09-25T10:51:23.683Z,21.34
2023-09-25T10:53:29.238Z,21.15
2023-09-25T10:55:37.645Z,21.85
2023-09-25T10:57:44.040Z,22.12
2023-09-25T10:59:55.602Z,22.07
2023-09-25T11:02:08.522Z,22.09
2023-09-25T11:04:13.595Z,22.08
2023-09-25T11:06:19.564Z,22.09
2023-09-25T11:08:27.722Z,22.16
2023-09-25T11:10:34.806Z,22.16
2023-09-25T11:12:45.405Z,21.82
2023-09-25T11:14:50.522Z,21.34
2023-09-25T11:16:58.608Z,21.76
2023-09-25T11:19:16.018Z,21.39
2023-09-25T11:21:21.259Z,21.57
2023-09-25T11:23:30.063Z,21.71
2023-09-25T11:25:39.186Z,22.21
2023-09-25T11:30:42.127Z,22.58
2023-09-25T11:32:48.970Z,22.57
2023-09-25T11:34:56.196Z,22.88
2023-09-25T11:37:05.070Z,22.72
2023-09-25T11:39:19.862Z,22.34
2023-09-25T11:41:28.368Z,22.16
2023-09-25T11:43:40.730Z,21.91
2023-09-25T11:45:45.860Z,21.85
2023-09-25T11:47:52.264Z,21.46
2023-09-25T11:49:58.656Z,21.63
2023-09-25T11:52:03.533Z,21.45
2023-09-25T11:54:08.798Z,21.48
2023-09-25T11:56:18.590Z,21.78
2023-09-25T11:58:32.686Z,22.29
2023-09-25T12:00:42.893Z,21.99
2023-09-25T12:03:10.310Z,21.63
2023-09-25T12:05:15.347Z,21.97
2023-09-25T12:07:23.328Z,21.82
2023-09-25T12:09:30.960Z,22.01
2023-09-25T12:11:35.584Z,21.83
2023-09-25T12:13:46.529Z,21.69
2023-09-25T12:16:01.688Z,21.64
2023-09-25T12:18:07.561Z,21.47
2023-09-25T12:20:25.321Z,21.35
2023-09-25T12:22:28.085Z,21.74
2023-09-25T12:24:39.596Z,21.22
2023-09-25T12:26:47.367Z,21.01
2023-09-25T12:28:57.932Z,20.92
2023-09-25T12:31:05.902Z,21.27
2023-09-25T12:33:12.029Z,21.67
2023-09-25T12:35:20.229Z,21.91
2023-09-25T12:37:26.790Z,21.97
2023-09-25T12:39:35.584Z,21.96
2023-09-25T12:41:43.061Z,22.08
2023-09-25T12:43:50.275Z,21.91
2023-09-25T12:45:57.177Z,22.09
2023-09-25T12:48:04.830Z,22.45
2023-09-25T12:50:12.161Z,22.51
2023-09-25T12:52:18.188Z,22.86
2023-09-25T12:54:23.507Z,22.66
2023-09-25T12:56:29.548Z,22.30
2023-09-25T12:58:35.527Z,21.82
2023-09-25T13:00:41.090Z,21.99
2023-09-25T13:02:52.072Z,21.80
2023-09-25T13:05:00.117Z,21.97
2023-09-25T13:07:05.454Z,21.87
2023-09-25T13:09:12.823Z,22.05
2023-09-25T13:11:17.782Z,21.86
2023-09-25T13:13:23.017Z,22.05
2023-09-25T13:15:30.378Z,21.58
2023-09-25T13:17:35.247Z,21.73
2023-09-25T13:19:41.077Z,21.86
2023-09-25T13:21:48.482Z,22.09
2023-09-25T13:23:58.111Z,21.83
2023-09-25T13:26:05.173Z,21.67
2023-09-25T13:28:10.282Z,21.54
2023-09-25T13:30:17.619Z,21.84
2023-09-25T13:32:24.538Z,21.67
2023-09-25T13:34:29.466Z,21.75
2023-09-25T13:36:36.241Z,21.48
2023-09-25T13:38:45.421Z,21.53
2023-09-25T13:40:52.414Z,21.63
2023-09-25T13:43:02.535Z,21.33
2023-09-25T13:45:14.176Z,21.34
2023-09-25T13:47:18.987Z,21.43
2023-09-25T13:49:30.643Z,21.52
2023-09-25T13:51:37.647Z,21.48
2023-09-25T13:53:46.250Z,21.11
2023-09-25T13:55:52.755Z,20.65
2023-09-25T13:58:00.959Z,20.42
2023-09-25T14:00:09.437Z,20.76
2023-09-25T14:02:26.682Z,20.29
2023-09-25T14:04:34.167Z,20.27
2023-09-25T14:06:42.650Z,20.42
2023-09-25T14:08:50.022Z,20.37
2023-09-25T14:10:55.540Z,20.61
2023-09-25T14:13:00.661Z,20.68
2023-09-25T14:15:12.872Z,20.93
2023-09-25T14:17:18.117Z,21.21
2023-09-25T14:19:23.390Z,21.19
2023-09-25T14:21:28.592Z,21.16
2023-09-25T14:23:35.844Z,21.12
2023-09-25T14:25:43.798Z,21.42
2023-09-25T14:27:49.337Z,21.20
2023-09-25T14:29:56.851Z,21.21
2023-09-25T14:32:08.486Z,21.25
2023-09-25T14:34:13.850Z,21.54
2023-09-25T14:36:18.745Z,21.58
2023-09-25T14:38:33.363Z,21.88
2023-09-25T14:40:40.559Z,21.73
2023-09-25T14:42:51.474Z,21.65
2023-09-25T14:44:59.302Z,21.40
2023-09-25T14:47:04.562Z,21.28
2023-09-25T14:49:13.039Z,21.33
2023-09-25T14:51:26.002Z,21.10
2023-09-25T14:53:30.944Z,20.91
2023-09-25T14:55:53.641Z,21.13
2023-09-25T14:58:08.559Z,21.08
2023-09-25T15:00:19.299Z,21.21
2023-09-25T15:02:25.804Z,21.44
2023-09-25T15:04:34.015Z,21.33
2023-09-25T15:06:39.127Z,21.15
2023-09-25T15:08:46.675Z,21.32
2023-09-25T15:10:52.778Z,21.27
2023-09-25T15:12:58.740Z,21.13
2023-09-25T15:15:08.189Z,21.11
2023-09-25T15:17:13.015Z,21.00
2023-09-25T15:19:22.696Z,20.86
2023-09-25T15:21:28.768Z,20.88
2023-09-25T15:23:33.611Z,20.84
2023-09-25T15:25:40.325Z,20.85
2023-09-25T15:27:51.318Z,20.76
2023-09-25T15:29:58.770Z,20.79
2023-09-25T15:32:04.286Z,20.88
2023-09-25T15:34:12.740Z,20.97
2023-09-25T15:36:32.605Z,20.85
2023-09-25T15:38:43.088Z,20.81
2023-09-25T15:40:52.769Z,20.77
2023-09-25T15:43:02.314Z,20.92
2023-09-25T15:45:14.262Z,20.90
2023-09-25T15:47:32.208Z,21.07
2023-09-25T15:49:41.703Z,21.02
2023-09-25T15:51:49.377Z,21.02
2023-09-25T15:53:54.605Z,20.73
2023-09-25T15:56:02.011Z,20.85
2023-09-25T15:58:07.472Z,20.80
2023-09-25T16:00:13.706Z,20.79
2023-09-25T16:02:22.361Z,20.69
2023-09-25T16:04:27.524Z,20.61
2023-09-25T16:06:33.598Z,20.68
2023-09-25T16:08:38.465Z,20.60
2023-09-25T16:10:40.912Z,20.57
2023-09-25T16:12:45.596Z,20.54
2023-09-25T16:14:50.694Z,20.39
2023-09-25T16:16:57.667Z,20.21
2023-09-25T16:19:05.189Z,20.26
2023-09-25T16:21:15.744Z,20.30
2023-09-25T16:23:31.701Z,20.33
2023-09-25T16:25:41.031Z,20.43
2023-09-25T16:27:45.878Z,20.54
2023-09-25T16:30:00.332Z,20.38
2023-09-25T16:32:03.042Z,20.36
2023-09-25T16:34:10.514Z,20.31
2023-09-25T16:36:16.541Z,20.18
2023-09-25T16:38:19.455Z,20.18
2023-09-25T16:40:24.287Z,20.25
2023-09-25T16:42:29.200Z,20.18
2023-09-25T16:44:34.327Z,20.17
2023-09-25T16:46:42.084Z,20.22
2023-09-25T16:48:47.320Z,20.27
2023-09-25T16:50:55.571Z,20.27
2023-09-25T16:53:01.818Z,20.17
2023-09-25T16:55:07.278Z,20.01
2023-09-25T16:57:14.020Z,19.96
2023-09-25T16:59:18.821Z,19.89
2023-09-25T17:01:24.224Z,19.77
2023-09-25T17:03:35.114Z,19.62
2023-09-25T17:05:40.087Z,19.43
2023-09-25T17:07:50.236Z,19.39
2023-09-25T17:09:55.595Z,19.35
2023-09-25T17:12:00.533Z,19.19
2023-09-25T17:14:10.807Z,19.12
2023-09-25T17:16:17.267Z,19.10
2023-09-25T17:18:26.070Z,18.99
2023-09-25T17:20:31.336Z,18.91
2023-09-25T17:22:44.799Z,18.90
2023-09-25T17:24:56.295Z,18.84
2023-09-25T17:27:01.101Z,18.75
2023-09-25T17:29:06.189Z,18.68
2023-09-25T17:31:14.039Z,18.60
2023-09-25T17:33:18.918Z,18.53
2023-09-25T17:35:26.597Z,18.48
2023-09-25T17:37:34.035Z,18.42
2023-09-25T17:39:40.071Z,18.38
2023-09-25T17:41:49.968Z,18.24
2023-09-25T17:43:58.201Z,18.19
2023-09-25T17:46:03.962Z,18.20
2023-09-25T17:48:10.246Z,18.16
2023-09-25T17:50:15.429Z,18.07
2023-09-25T17:52:24.347Z,17.95
2023-09-25T17:54:29.274Z,17.86
2023-09-25T17:56:34.013Z,17.78
2023-09-25T17:58:43.166Z,17.69
2023-09-25T18:00:48.468Z,17.67
2023-09-25T18:02:56.225Z,17.62
2023-09-25T18:05:05.188Z,17.55
2023-09-25T18:07:10.067Z,17.48
2023-09-25T18:09:17.599Z,17.45
2023-09-25T18:11:22.682Z,17.37
2023-09-25T18:13:28.180Z,17.29
2023-09-25T18:15:36.568Z,17.23
2023-09-25T18:17:39.130Z,17.14
2023-09-25T18:19:44.198Z,17.13
2023-09-25T18:21:49.337Z,17.07
2023-09-25T18:23:56.000Z,16.97
2023-09-25T18:26:13.171Z,16.88
2023-09-25T18:28:21.109Z,16.80
2023-09-25T18:30:28.298Z,16.75
2023-09-25T18:32:36.104Z,16.72
2023-09-25T18:34:43.188Z,16.61
2023-09-25T18:36:51.175Z,16.58
2023-09-25T18:38:55.985Z,16.55
2023-09-25T18:41:01.233Z,16.49
2023-09-25T18:43:06.995Z,16.49
2023-09-25T18:45:16.452Z,16.45
2023-09-25T18:47:22.413Z,16.41
2023-09-25T18:49:29.800Z,16.35
2023-09-25T18:51:36.080Z,16.27
2023-09-25T18:53:41.259Z,16.19
2023-09-25T18:55:46.541Z,16.16
2023-09-25T18:57:51.434Z,16.12
2023-09-25T19:00:01.487Z,16.03
2023-09-25T19:02:07.578Z,15.98
2023-09-25T19:04:14.496Z,15.93
2023-09-25T19:06:24.312Z,15.87
2023-09-25T19:08:29.108Z,15.86
2023-09-25T19:10:35.053Z,15.82
2023-09-25T19:12:40.467Z,15.76
2023-09-25T19:14:45.427Z,15.69
2023-09-25T19:16:50.402Z,15.69
2023-09-25T19:19:00.618Z,15.76
2023-09-25T19:21:05.468Z,15.73
2023-09-25T19:23:13.634Z,15.69
2023-09-25T19:25:20.032Z,15.65
2023-09-25T19:27:27.491Z,15.62
2023-09-25T19:29:33.564Z,15.62
2023-09-25T19:31:42.993Z,15.59
2023-09-25T19:33:57.842Z,15.54
2023-09-25T19:36:03.509Z,15.49
2023-09-25T19:38:08.434Z,15.45
2023-09-25T19:40:16.038Z,15.41
2023-09-25T19:42:21.466Z,15.37
2023-09-25T19:44:28.690Z,15.34
2023-09-25T19:46:35.032Z,15.32
2023-09-25T19:48:39.892Z,15.29
2023-09-25T19:50:48.055Z,15.23
2023-09-25T19:52:52.892Z,15.17
2023-09-25T19:55:02.819Z,15.11
2023-09-25T19:57:26.480Z,15.08
2023-09-25T19:59:31.632Z,15.06
2023-09-25T20:01:36.697Z,15.03
2023-09-25T20:03:43.777Z,15.02
2023-09-25T20:05:53.296Z,15.03
2023-09-25T20:07:59.597Z,15.00
2023-09-25T20:10:04.558Z,15.01
2023-09-25T20:12:12.231Z,14.97
2023-09-25T20:14:19.133Z,14.93
2023-09-25T20:16:26.863Z,14.89
2023-09-25T20:18:29.456Z,14.85
2023-09-25T20:20:36.804Z,14.82
2023-09-25T20:22:42.487Z,14.83
2023-09-25T20:24:47.575Z,14.81
2023-09-25T20:26:52.432Z,14.81
2023-09-25T20:28:59.978Z,14.79
2023-09-25T20:31:04.917Z,14.77
2023-09-25T20:33:09.823Z,14.78
2023-09-25T20:35:14.814Z,14.79
2023-09-25T20:37:19.968Z,14.80
2023-09-25T20:39:24.692Z,14.79
2023-09-25T20:41:29.608Z,14.80
2023-09-25T20:43:34.726Z,14.84
2023-09-25T20:45:43.411Z,14.91
2023-09-25T20:47:48.477Z,14.95
2023-09-25T20:49:54.728Z,14.90
2023-09-25T20:52:02.588Z,14.86
2023-09-25T20:54:05.613Z,14.84
2023-09-25T20:56:10.450Z,14.83
2023-09-25T20:58:12.671Z,14.82
2023-09-25T21:00:20.827Z,14.78
2023-09-25T21:02:28.250Z,14.75
2023-09-25T21:04:33.260Z,14.70
2023-09-25T21:06:38.101Z,14.74
2023-09-25T21:08:44.487Z,14.78
2023-09-25T21:10:49.309Z,14.74
2023-09-25T21:12:56.100Z,14.76
2023-09-25T21:15:00.855Z,14.85
2023-09-25T21:17:05.815Z,14.78
2023-09-25T21:19:14.590Z,14.74
2023-09-25T21:21:19.329Z,14.72
2023-09-25T21:23:24.119Z,14.70
2023-09-25T21:25:30.752Z,14.68
2023-09-25T21:27:33.193Z,14.64
2023-09-25T21:29:38.381Z,14.62
2023-09-25T21:31:45.827Z,14.61
2023-09-25T21:33:53.079Z,14.61
2023-09-25T21:36:03.879Z,14.55
2023-09-25T21:38:08.776Z,14.57
2023-09-25T21:40:12.508Z,14.53
2023-09-25T21:42:20.026Z,14.49
2023-09-25T21:44:24.262Z,14.51
2023-09-25T21:46:29.210Z,14.48
2023-09-25T21:48:40.036Z,14.43
2023-09-25T21:50:45.271Z,14.39
2023-09-25T21:52:56.443Z,14.38
2023-09-25T21:55:05.719Z,14.36
2023-09-25T21:57:11.005Z,14.30
2023-09-25T21:59:18.472Z,14.28
2023-09-25T22:01:25.406Z,14.25
2023-09-25T22:03:30.596Z,14.29
2023-09-25T22:05:35.722Z,14.24
2023-09-25T22:09:01.340Z,14.23
2023-09-25T22:11:07.297Z,14.30
2023-09-25T22:13:16.622Z,14.28
2023-09-25T22:15:18.968Z,14.25
2023-09-25T22:17:25.358Z,14.24
2023-09-25T22:19:41.182Z,14.20
2023-09-25T22:21:52.660Z,14.21
2023-09-25T22:24:08.413Z,14.22
2023-09-25T22:26:16.475Z,14.29
2023-09-25T22:28:49.857Z,14.24
2023-09-25T22:31:01.684Z,14.19
2023-09-25T22:33:07.404Z,14.18
2023-09-25T22:35:16.050Z,14.14
2023-09-25T22:37:29.722Z,14.12
2023-09-25T22:39:38.936Z,14.11
2023-09-25T22:41:49.848Z,14.11
2023-09-25T22:43:59.851Z,14.05
2023-09-25T22:46:05.086Z,14.04
2023-09-25T22:48:07.904Z,14.03
2023-09-25T22:50:12.790Z,14.00
2023-09-25T22:52:17.905Z,13.96
2023-09-25T22:54:22.867Z,13.98
2023-09-25T22:56:28.198Z,14.03
2023-09-25T22:58:36.964Z,14.04
2023-09-25T23:00:44.787Z,14.00
2023-09-25T23:02:48.569Z,13.97
2023-09-25T23:04:54.133Z,13.94
2023-09-25T23:07:10.161Z,13.93
2023-09-25T23:09:16.002Z,13.88
2023-09-25T23:11:18.165Z,13.87
2023-09-25T23:13:23.461Z,13.84
2023-09-25T23:15:34.613Z,13.82
2023-09-25T23:17:39.401Z,13.81
2023-09-25T23:19:44.702Z,13.77
2023-09-25T23:21:51.227Z,13.76
2023-09-25T23:23:56.796Z,13.77
2023-09-25T23:26:01.756Z,13.75
2023-09-25T23:28:07.526Z,13.79
2023-09-25T23:30:14.114Z,13.80
2023-09-25T23:32:24.379Z,13.80
2023-09-25T23:34:30.688Z,13.75
2023-09-25T23:36:37.722Z,13.73
2023-09-25T23:38:42.965Z,13.70
2023-09-25T23:40:47.910Z,13.69
2023-09-25T23:42:50.653Z,13.65
2023-09-25T23:44:55.646Z,13.63
2023-09-25T23:47:02.744Z,13.62
2023-09-25T23:49:10.264Z,13.56
2023-09-25T23:51:15.160Z,13.59
2023-09-25T23:53:20.005Z,13.67
2023-09-25T23:55:25.769Z,13.66
2023-09-25T23:57:27.961Z,13.68
2023-09-25T23:59:34.152Z,13.67
